createdAt,value
2023-03-14T00:01:12.051Z,1.92
2023-03-14T00:03:40.379Z,1.90
2023-03-14T00:06:09.211Z,1.86
2023-03-14T00:08:37.588Z,1.83
2023-03-14T00:11:08.525Z,1.80
2023-03-14T00:13:36.685Z,1.76
2023-03-14T00:16:13.563Z,1.71
2023-03-14T00:18:42.085Z,1.67
2023-03-14T00:21:11.744Z,1.63
2023-03-14T00:23:41.854Z,1.60
2023-03-14T00:26:15.098Z,1.57
2023-03-14T00:28:44.055Z,1.52
2023-03-14T00:31:15.303Z,1.53
2023-03-14T00:33:45.060Z,1.55
2023-03-14T00:36:15.567Z,1.59
2023-03-14T00:38:45.139Z,1.65
2023-03-14T00:41:16.646Z,1.70
2023-03-14T00:43:45.020Z,1.72
2023-03-14T00:46:14.073Z,1.75
2023-03-14T00:48:42.242Z,1.77
2023-03-14T00:51:10.669Z,1.77
2023-03-14T00:53:40.207Z,1.75
2023-03-14T00:56:11.088Z,1.70
2023-03-14T00:58:39.711Z,1.67
2023-03-14T01:01:15.633Z,1.64
2023-03-14T01:03:43.493Z,1.61
2023-03-14T01:06:18.470Z,1.59
2023-03-14T01:08:47.345Z,1.58
2023-03-14T01:11:18.805Z,1.58
2023-03-14T01:13:47.376Z,1.57
2023-03-14T01:16:15.976Z,1.54
2023-03-14T01:18:45.457Z,1.54
2023-03-14T01:21:26.177Z,1.55
2023-03-14T01:23:55.637Z,1.57
2023-03-14T01:26:26.946Z,1.60
2023-03-14T01:28:56.593Z,1.63
2023-03-14T01:31:25.747Z,1.67
2023-03-14T01:33:54.005Z,1.70
2023-03-14T01:36:21.958Z,1.72
2023-03-14T01:38:49.919Z,1.75
2023-03-14T01:41:22.670Z,1.76
2023-03-14T01:43:50.936Z,1.76
2023-03-14T01:46:20.997Z,1.76
2023-03-14T01:49:13.667Z,1.76
2023-03-14T01:52:05.048Z,1.75
2023-03-14T01:54:38.338Z,1.73
2023-03-14T01:57:14.602Z,1.70
2023-03-14T01:59:49.793Z,1.68
2023-03-14T02:02:17.902Z,1.66
2023-03-14T02:04:46.450Z,1.64
2023-03-14T02:07:23.524Z,1.66
2023-03-14T02:09:52.470Z,1.70
2023-03-14T02:12:22.649Z,1.73
2023-03-14T02:14:50.627Z,1.78
2023-03-14T02:17:20.350Z,1.81
2023-03-14T02:19:48.096Z,1.85
2023-03-14T02:22:17.489Z,1.88
2023-03-14T02:25:07.867Z,1.91
2023-03-14T02:27:36.508Z,1.92
2023-03-14T02:30:12.060Z,1.92
2023-03-14T02:32:44.822Z,1.92
2023-03-14T02:35:16.511Z,1.92
2023-03-14T02:38:04.767Z,1.93
2023-03-14T02:40:32.762Z,1.91
2023-03-14T02:43:00.757Z,1.90
2023-03-14T02:45:41.723Z,1.88
2023-03-14T02:48:17.856Z,1.86
2023-03-14T02:50:51.735Z,1.84
2023-03-14T02:53:24.759Z,1.83
2023-03-14T02:55:52.716Z,1.82
2023-03-14T02:58:21.281Z,1.78
2023-03-14T03:00:49.758Z,1.77
2023-03-14T03:03:17.757Z,1.75
2023-03-14T03:05:49.738Z,1.73
2023-03-14T03:08:19.051Z,1.71
2023-03-14T03:10:47.551Z,1.67
2023-03-14T03:13:16.059Z,1.63
2023-03-14T03:15:44.363Z,1.59
2023-03-14T03:18:12.289Z,1.56
2023-03-14T03:20:40.105Z,1.54
2023-03-14T03:23:08.021Z,1.53
2023-03-14T03:25:35.917Z,1.52
2023-03-14T03:28:08.562Z,1.50
2023-03-14T03:30:43.177Z,1.47
2023-03-14T03:33:11.996Z,1.44
2023-03-14T03:35:47.527Z,1.42
2023-03-14T03:38:16.349Z,1.41
2023-03-14T03:40:44.857Z,1.42
2023-03-14T03:43:12.746Z,1.45
2023-03-14T03:45:41.260Z,1.48
2023-03-14T03:48:09.140Z,1.52
2023-03-14T03:50:37.077Z,1.54
2023-03-14T03:53:04.955Z,1.56
2023-03-14T03:55:32.758Z,1.58
2023-03-14T03:58:00.555Z,1.60
2023-03-14T04:00:28.436Z,1.61
2023-03-14T04:02:56.458Z,1.62
2023-03-14T04:05:24.702Z,1.62
2023-03-14T04:07:58.256Z,1.62
2023-03-14T04:10:40.063Z,1.60
2023-03-14T04:13:07.943Z,1.58
2023-03-14T04:15:35.816Z,1.54
2023-03-14T04:18:03.848Z,1.52
2023-03-14T04:20:31.804Z,1.50
2023-03-14T04:22:59.643Z,1.48
2023-03-14T04:25:27.679Z,1.46
2023-03-14T04:27:55.767Z,1.44
2023-03-14T04:30:23.823Z,1.41
2023-03-14T04:32:56.401Z,1.38
2023-03-14T04:35:24.635Z,1.35
2023-03-14T04:37:55.152Z,1.33
2023-03-14T04:40:24.898Z,1.31
2023-03-14T04:42:53.339Z,1.29
2023-03-14T04:45:21.344Z,1.26
2023-03-14T04:47:49.238Z,1.24
2023-03-14T04:50:17.015Z,1.22
2023-03-14T04:52:45.035Z,1.21
2023-03-14T04:55:24.453Z,1.23
2023-03-14T04:57:58.039Z,1.26
2023-03-14T05:00:26.181Z,1.31
2023-03-14T05:02:54.221Z,1.35
2023-03-14T05:05:22.584Z,1.39
2023-03-14T05:07:50.648Z,1.44
2023-03-14T05:10:18.627Z,1.48
2023-03-14T05:12:46.424Z,1.51
2023-03-14T05:15:16.405Z,1.54
2023-03-14T05:17:44.714Z,1.57
2023-03-14T05:20:15.576Z,1.60
2023-03-14T05:22:45.117Z,1.62
2023-03-14T05:25:13.297Z,1.66
2023-03-14T05:27:41.133Z,1.71
2023-03-14T05:30:10.092Z,1.74
2023-03-14T05:32:37.964Z,1.79
2023-03-14T05:35:06.367Z,1.83
2023-03-14T05:37:35.573Z,1.87
2023-03-14T05:40:04.321Z,1.91
2023-03-14T05:42:32.248Z,1.95
2023-03-14T05:45:00.131Z,1.99
2023-03-14T05:47:28.056Z,2.04
2023-03-14T05:49:56.004Z,2.10
2023-03-14T05:52:23.862Z,2.15
2023-03-14T05:54:51.661Z,2.21
2023-03-14T05:57:19.495Z,2.26
2023-03-14T05:59:47.382Z,2.32
2023-03-14T06:02:15.231Z,2.39
2023-03-14T06:04:43.140Z,2.44
2023-03-14T06:07:11.028Z,2.51
2023-03-14T06:09:40.591Z,2.59
2023-03-14T06:12:08.502Z,2.66
2023-03-14T06:14:36.405Z,2.73
2023-03-14T06:17:04.322Z,2.80
2023-03-14T06:19:32.424Z,2.86
2023-03-14T06:22:00.389Z,2.92
2023-03-14T06:24:28.368Z,2.99
2023-03-14T06:26:56.188Z,3.05
2023-03-14T06:29:24.104Z,3.09
2023-03-14T06:31:51.981Z,3.14
2023-03-14T06:34:19.779Z,3.19
2023-03-14T06:36:48.323Z,3.24
2023-03-14T06:39:18.168Z,3.29
2023-03-14T06:41:46.528Z,3.33
2023-03-14T06:44:14.428Z,3.38
2023-03-14T06:46:42.377Z,3.44
2023-03-14T06:49:10.226Z,3.51
2023-03-14T06:51:38.123Z,3.58
2023-03-14T06:54:06.136Z,3.65
2023-03-14T06:56:33.990Z,3.72
2023-03-14T06:59:01.829Z,3.80
2023-03-14T07:01:31.928Z,3.90
2023-03-14T07:03:59.946Z,4.01
2023-03-14T07:06:30.310Z,4.13
2023-03-14T07:08:58.476Z,4.27
2023-03-14T07:11:27.395Z,4.43
2023-03-14T07:13:55.364Z,4.59
2023-03-14T07:16:23.311Z,4.76
2023-03-14T07:18:51.125Z,4.96
2023-03-14T07:21:19.022Z,5.17
2023-03-14T07:23:46.911Z,5.38
2023-03-14T07:26:14.872Z,5.59
2023-03-14T07:28:42.809Z,5.81
2023-03-14T07:31:11.277Z,6.02
2023-03-14T07:33:39.329Z,6.24
2023-03-14T07:36:07.978Z,6.46
2023-03-14T07:38:36.191Z,6.69
2023-03-14T07:41:06.576Z,6.89
2023-03-14T07:43:34.741Z,7.10
2023-03-14T07:46:02.832Z,7.32
2023-03-14T07:48:31.036Z,7.51
2023-03-14T07:50:58.848Z,7.68
2023-03-14T07:53:26.834Z,7.83
2023-03-14T07:55:55.725Z,7.96
2023-03-14T07:58:23.986Z,8.08
2023-03-14T08:00:52.981Z,8.26
2023-03-14T08:03:21.092Z,8.46
2023-03-14T08:05:50.567Z,8.68
2023-03-14T08:08:19.060Z,8.90
2023-03-14T08:10:47.462Z,9.09
2023-03-14T08:13:15.347Z,9.26
2023-03-14T08:15:43.282Z,9.45
2023-03-14T08:18:11.388Z,9.67
2023-03-14T08:20:39.242Z,9.90
2023-03-14T08:23:07.059Z,10.11
2023-03-14T08:25:35.285Z,10.29
2023-03-14T08:28:03.185Z,10.46
2023-03-14T08:30:31.349Z,10.61
2023-03-14T08:32:59.526Z,10.72
2023-03-14T08:35:28.307Z,10.78
2023-03-14T08:37:56.863Z,10.81
2023-03-14T08:40:24.908Z,10.85
2023-03-14T08:42:52.975Z,10.90
2023-03-14T08:45:21.113Z,10.94
2023-03-14T08:47:49.082Z,10.96
2023-03-14T08:50:17.056Z,10.98
2023-03-14T08:52:44.991Z,10.99
2023-03-14T08:55:13.024Z,11.02
2023-03-14T08:57:40.963Z,11.03
2023-03-14T09:00:12.021Z,11.06
2023-03-14T09:02:39.966Z,11.13
2023-03-14T09:05:08.503Z,11.21
2023-03-14T09:07:36.620Z,11.33
2023-03-14T09:10:05.026Z,11.48
2023-03-14T09:12:33.321Z,11.61
2023-03-14T09:15:01.226Z,11.74
2023-03-14T09:17:29.140Z,11.84
2023-03-14T09:20:00.054Z,11.93
2023-03-14T09:22:28.340Z,11.97
2023-03-14T09:24:56.232Z,11.99
2023-03-14T09:27:24.170Z,12.00
2023-03-14T09:29:52.192Z,12.01
2023-03-14T09:32:20.140Z,12.04
2023-03-14T09:34:48.076Z,12.09
2023-03-14T09:37:17.334Z,12.16
2023-03-14T09:39:45.191Z,12.24
2023-03-14T09:42:18.652Z,12.35
2023-03-14T09:45:00.831Z,12.44
2023-03-14T09:47:29.292Z,12.50
2023-03-14T09:49:57.161Z,12.56
2023-03-14T09:52:31.938Z,12.61
2023-03-14T09:55:04.895Z,12.65
2023-03-14T09:57:36.462Z,12.65
2023-03-14T10:00:18.372Z,12.68
2023-03-14T10:03:21.639Z,12.74
2023-03-14T10:05:49.693Z,12.88
2023-03-14T10:08:17.578Z,13.07
2023-03-14T10:10:45.608Z,13.29
2023-03-14T10:13:27.136Z,13.49
2023-03-14T10:16:00.068Z,13.72
2023-03-14T10:18:31.301Z,13.91
2023-03-14T10:21:17.826Z,14.04
2023-03-14T10:23:48.539Z,14.21
2023-03-14T10:26:20.202Z,14.42
2023-03-14T10:29:11.031Z,14.69
2023-03-14T10:31:55.428Z,15.04
2023-03-14T10:34:32.322Z,15.44
2023-03-14T10:37:22.270Z,15.78
2023-03-14T10:39:53.045Z,16.16
2023-03-14T10:42:35.513Z,16.48
2023-03-14T10:45:08.963Z,16.78
2023-03-14T10:47:36.872Z,17.04
2023-03-14T10:50:26.614Z,17.21
2023-03-14T10:53:03.712Z,17.36
2023-03-14T10:55:46.193Z,17.51
2023-03-14T10:58:29.481Z,17.66
2023-03-14T11:01:26.534Z,17.87
2023-03-14T11:04:09.420Z,18.09
2023-03-14T11:07:03.427Z,18.29
2023-03-14T11:09:37.132Z,18.52
2023-03-14T11:12:25.884Z,18.64
2023-03-14T11:15:03.389Z,18.77
2023-03-14T11:17:49.872Z,18.99
2023-03-14T11:20:39.653Z,19.18
2023-03-14T11:23:15.764Z,19.35
2023-03-14T11:25:52.679Z,19.47
2023-03-14T11:28:39.838Z,19.57
2023-03-14T11:31:21.110Z,19.64
2023-03-14T11:34:02.047Z,19.62
2023-03-14T11:36:41.413Z,19.58
2023-03-14T11:39:17.412Z,19.51
2023-03-14T11:41:52.292Z,19.42
2023-03-14T11:44:31.713Z,19.29
2023-03-14T11:47:15.412Z,19.11
2023-03-14T11:49:51.840Z,19.00
2023-03-14T11:52:25.847Z,18.98
2023-03-14T11:55:03.696Z,18.94
2023-03-14T11:57:31.601Z,18.81
2023-03-14T12:00:13.359Z,18.69
2023-03-14T12:02:59.159Z,18.57
2023-03-14T12:05:48.843Z,18.46
2023-03-14T12:08:52.257Z,18.31
2023-03-14T12:11:29.065Z,18.14
2023-03-14T12:13:57.150Z,17.99
2023-03-14T12:16:25.006Z,17.89
2023-03-14T12:18:54.382Z,17.81
2023-03-14T12:21:24.085Z,17.77
2023-03-14T12:23:58.382Z,17.77
2023-03-14T12:26:42.766Z,17.78
2023-03-14T12:29:16.568Z,17.82
2023-03-14T12:31:50.359Z,17.87
2023-03-14T12:34:18.197Z,17.91
2023-03-14T12:36:51.940Z,17.98
2023-03-14T12:39:23.544Z,18.11
2023-03-14T12:42:05.327Z,18.22
2023-03-14T12:44:33.130Z,18.31
2023-03-14T12:47:19.431Z,18.40
2023-03-14T12:49:53.312Z,18.48
2023-03-14T12:52:33.765Z,18.55
2023-03-14T12:55:16.252Z,18.60
2023-03-14T12:58:00.589Z,18.63
2023-03-14T13:00:34.317Z,18.65
2023-03-14T13:03:26.246Z,18.69
2023-03-14T13:06:00.164Z,18.72
2023-03-14T13:08:45.687Z,18.74
2023-03-14T13:11:17.980Z,18.73
2023-03-14T13:13:50.875Z,18.72
2023-03-14T13:16:21.866Z,18.74
2023-03-14T13:18:59.704Z,18.76
2023-03-14T13:21:29.386Z,18.74
2023-03-14T13:24:04.765Z,18.73
2023-03-14T13:26:38.542Z,18.73
2023-03-14T13:29:32.409Z,18.75
2023-03-14T13:32:17.237Z,18.78
2023-03-14T13:34:45.147Z,18.82
2023-03-14T13:37:22.818Z,18.85
2023-03-14T13:39:52.592Z,18.89
2023-03-14T13:42:20.500Z,18.94
2023-03-14T13:44:48.870Z,18.99
2023-03-14T13:47:19.587Z,19.03
2023-03-14T13:49:49.372Z,19.08
2023-03-14T13:52:37.236Z,19.11
2023-03-14T13:55:07.029Z,19.12
2023-03-14T13:58:04.455Z,19.11
2023-03-14T14:00:32.539Z,19.09
2023-03-14T14:03:01.360Z,19.08
2023-03-14T14:05:32.369Z,19.08
2023-03-14T14:08:00.946Z,19.10
2023-03-14T14:10:30.473Z,19.11
2023-03-14T14:13:07.015Z,19.10
2023-03-14T14:15:42.847Z,19.12
2023-03-14T14:18:15.843Z,19.18
2023-03-14T14:20:47.620Z,19.35
2023-03-14T14:23:29.901Z,19.51
2023-03-14T14:25:58.908Z,19.57
2023-03-14T14:28:27.920Z,19.57
2023-03-14T14:31:09.228Z,19.52
2023-03-14T14:33:43.647Z,19.44
2023-03-14T14:36:27.895Z,19.36
2023-03-14T14:38:59.484Z,19.26
2023-03-14T14:41:31.666Z,19.16
2023-03-14T14:44:00.900Z,19.08
2023-03-14T14:46:32.914Z,18.99
2023-03-14T14:49:06.995Z,18.89
2023-03-14T14:51:44.689Z,18.82
2023-03-14T14:54:14.781Z,18.72
2023-03-14T14:56:49.850Z,18.60
2023-03-14T14:59:30.052Z,18.46
2023-03-14T15:02:01.528Z,18.31
2023-03-14T15:04:32.924Z,18.20
2023-03-14T15:07:00.972Z,18.13
2023-03-14T15:09:28.871Z,18.06
2023-03-14T15:11:56.774Z,17.96
2023-03-14T15:14:24.686Z,17.84
2023-03-14T15:16:52.542Z,17.72
2023-03-14T15:19:25.663Z,17.59
2023-03-14T15:21:54.602Z,17.45
2023-03-14T15:24:25.864Z,17.30
2023-03-14T15:26:53.977Z,17.16
2023-03-14T15:29:21.933Z,17.00
2023-03-14T15:31:49.954Z,16.83
2023-03-14T15:34:17.922Z,16.66
2023-03-14T15:36:45.782Z,16.50
2023-03-14T15:39:13.701Z,16.34
2023-03-14T15:41:41.919Z,16.21
2023-03-14T15:44:09.797Z,16.08
2023-03-14T15:46:37.748Z,15.95
2023-03-14T15:49:06.016Z,15.82
2023-03-14T15:51:42.029Z,15.69
2023-03-14T15:54:11.223Z,15.56
2023-03-14T15:56:40.652Z,15.44
2023-03-14T15:59:09.046Z,15.31
2023-03-14T16:01:37.071Z,15.19
2023-03-14T16:04:05.112Z,15.08
2023-03-14T16:06:33.156Z,14.96
2023-03-14T16:09:01.247Z,14.86
2023-03-14T16:11:29.213Z,14.77
2023-03-14T16:13:56.978Z,14.68
2023-03-14T16:16:25.221Z,14.57
2023-03-14T16:18:53.115Z,14.48
2023-03-14T16:21:21.332Z,14.39
2023-03-14T16:23:49.342Z,14.29
2023-03-14T16:26:20.195Z,14.20
2023-03-14T16:28:48.108Z,14.13
2023-03-14T16:31:21.627Z,14.05
2023-03-14T16:33:49.712Z,13.97
2023-03-14T16:36:17.579Z,13.90
2023-03-14T16:38:46.769Z,13.83
2023-03-14T16:41:18.273Z,13.77
2023-03-14T16:43:52.430Z,13.71
2023-03-14T16:46:22.775Z,13.64
2023-03-14T16:48:51.407Z,13.59
2023-03-14T16:51:19.419Z,13.54
2023-03-14T16:53:47.816Z,13.48
2023-03-14T16:56:16.183Z,13.42
2023-03-14T16:58:44.955Z,13.35
2023-03-14T17:01:18.314Z,13.29
2023-03-14T17:03:49.342Z,13.22
2023-03-14T17:06:29.114Z,13.15
2023-03-14T17:08:57.843Z,13.08
2023-03-14T17:11:25.942Z,13.01
2023-03-14T17:13:54.177Z,12.95
2023-03-14T17:16:24.685Z,12.90
2023-03-14T17:18:53.441Z,12.85
2023-03-14T17:21:22.490Z,12.80
2023-03-14T17:23:50.828Z,12.75
2023-03-14T17:26:19.257Z,12.71
2023-03-14T17:28:47.121Z,12.66
2023-03-14T17:31:18.034Z,12.63
2023-03-14T17:33:46.088Z,12.61
2023-03-14T17:36:14.896Z,12.59
2023-03-14T17:38:43.034Z,12.57
2023-03-14T17:41:13.374Z,12.55
2023-03-14T17:43:42.327Z,12.53
2023-03-14T17:46:15.310Z,12.53
2023-03-14T17:48:48.212Z,12.50
2023-03-14T17:51:17.261Z,12.48
2023-03-14T17:53:45.424Z,12.48
2023-03-14T17:56:13.395Z,12.48
2023-03-14T17:58:44.084Z,12.48
2023-03-14T18:01:16.756Z,12.48
2023-03-14T18:03:45.747Z,12.47
2023-03-14T18:06:16.062Z,12.47
2023-03-14T18:08:47.417Z,12.45
2023-03-14T18:11:16.436Z,12.44
2023-03-14T18:13:45.761Z,12.42
2023-03-14T18:16:14.696Z,12.41
2023-03-14T18:18:47.811Z,12.42
2023-03-14T18:21:18.469Z,12.41
2023-03-14T18:23:48.356Z,12.38
2023-03-14T18:26:16.581Z,12.33
2023-03-14T18:28:45.048Z,12.26
2023-03-14T18:31:17.685Z,12.18
2023-03-14T18:33:47.984Z,12.08
2023-03-14T18:36:17.299Z,11.98
2023-03-14T18:38:48.519Z,11.88
2023-03-14T18:41:20.292Z,11.79
2023-03-14T18:43:48.216Z,11.70
2023-03-14T18:46:16.470Z,11.61
2023-03-14T18:48:44.590Z,11.51
2023-03-14T18:51:17.933Z,11.40
2023-03-14T18:53:46.523Z,11.28
2023-03-14T18:56:15.564Z,11.14
2023-03-14T18:58:43.681Z,11.01
2023-03-14T19:01:12.826Z,10.90
2023-03-14T19:03:42.402Z,10.80
2023-03-14T19:06:12.118Z,10.72
2023-03-14T19:08:44.615Z,10.64
2023-03-14T19:11:14.368Z,10.54
2023-03-14T19:13:43.230Z,10.39
2023-03-14T19:16:13.130Z,10.28
2023-03-14T19:18:42.120Z,10.17
2023-03-14T19:21:12.970Z,10.06
2023-03-14T19:23:43.682Z,9.96
2023-03-14T19:26:11.674Z,9.89
2023-03-14T19:28:40.101Z,9.85
2023-03-14T19:31:09.452Z,9.80
2023-03-14T19:33:47.533Z,9.77
2023-03-14T19:36:43.446Z,9.76
2023-03-14T19:39:11.627Z,9.77
2023-03-14T19:41:39.856Z,9.79
2023-03-14T19:44:08.149Z,9.81
2023-03-14T19:46:36.192Z,9.82
2023-03-14T19:49:08.000Z,9.82
2023-03-14T19:51:36.176Z,9.81
2023-03-14T19:54:05.172Z,9.76
2023-03-14T19:56:34.280Z,9.68
2023-03-14T19:59:05.339Z,9.59
2023-03-14T20:01:35.181Z,9.52
2023-03-14T20:04:04.454Z,9.45
2023-03-14T20:06:34.487Z,9.38
2023-03-14T20:09:02.899Z,9.28
2023-03-14T20:11:31.178Z,9.18
2023-03-14T20:13:59.030Z,9.09
2023-03-14T20:16:27.115Z,9.01
2023-03-14T20:18:54.986Z,8.92
2023-03-14T20:21:22.931Z,8.83
2023-03-14T20:23:51.492Z,8.74
2023-03-14T20:26:19.520Z,8.67
2023-03-14T20:28:48.254Z,8.61
2023-03-14T20:31:16.396Z,8.53
2023-03-14T20:33:44.431Z,8.46
2023-03-14T20:36:12.353Z,8.37
2023-03-14T20:38:40.585Z,8.27
2023-03-14T20:41:10.686Z,8.19
2023-03-14T20:43:38.908Z,8.13
2023-03-14T20:46:07.057Z,8.12
2023-03-14T20:48:35.064Z,8.12
2023-03-14T20:51:02.918Z,8.12
2023-03-14T20:53:31.212Z,8.10
2023-03-14T20:55:59.080Z,8.08
2023-03-14T20:58:27.294Z,8.04
2023-03-14T21:00:57.584Z,7.98
2023-03-14T21:03:26.209Z,7.93
2023-03-14T21:05:54.325Z,7.86
2023-03-14T21:08:24.839Z,7.83
2023-03-14T21:10:55.385Z,7.84
2023-03-14T21:13:24.351Z,7.85
2023-03-14T21:15:52.440Z,7.84
2023-03-14T21:18:23.216Z,7.82
2023-03-14T21:20:54.339Z,7.77
2023-03-14T21:23:26.745Z,7.73
2023-03-14T21:25:56.922Z,7.71
2023-03-14T21:28:24.968Z,7.71
2023-03-14T21:30:53.419Z,7.72
2023-03-14T21:33:21.761Z,7.73
2023-03-14T21:35:52.767Z,7.73
2023-03-14T21:38:21.117Z,7.72
2023-03-14T21:40:50.499Z,7.73
2023-03-14T21:43:21.845Z,7.78
2023-03-14T21:45:50.512Z,7.84
2023-03-14T21:48:18.451Z,7.92
2023-03-14T21:50:47.320Z,8.02
2023-03-14T21:53:15.549Z,8.09
2023-03-14T21:55:45.059Z,8.16
2023-03-14T21:58:14.900Z,8.21
2023-03-14T22:00:50.370Z,8.25
2023-03-14T22:03:25.040Z,8.28
2023-03-14T22:05:53.063Z,8.29
2023-03-14T22:08:22.756Z,8.29
2023-03-14T22:10:52.788Z,8.28
2023-03-14T22:13:23.715Z,8.29
2023-03-14T22:15:52.627Z,8.28
2023-03-14T22:18:20.518Z,8.29
2023-03-14T22:20:48.452Z,8.30
2023-03-14T22:23:17.040Z,8.30
2023-03-14T22:25:49.431Z,8.29
2023-03-14T22:28:21.150Z,8.26
2023-03-14T22:30:50.507Z,8.22
2023-03-14T22:33:19.330Z,8.17
2023-03-14T22:35:51.807Z,8.12
2023-03-14T22:38:20.061Z,8.07
2023-03-14T22:40:48.699Z,8.00
2023-03-14T22:43:17.676Z,7.92
2023-03-14T22:45:46.164Z,7.84
2023-03-14T22:48:15.433Z,7.78
2023-03-14T22:50:43.451Z,7.72
2023-03-14T22:53:11.361Z,7.64
2023-03-14T22:55:39.209Z,7.57
2023-03-14T22:58:07.558Z,7.49
2023-03-14T23:00:35.353Z,7.41
2023-03-14T23:03:03.259Z,7.32
2023-03-14T23:05:31.258Z,7.25
2023-03-14T23:07:59.160Z,7.20
2023-03-14T23:10:27.045Z,7.14
2023-03-14T23:12:57.606Z,7.09
2023-03-14T23:15:27.115Z,7.04
2023-03-14T23:17:55.011Z,6.98
2023-03-14T23:20:23.288Z,6.93
2023-03-14T23:22:51.267Z,6.88
2023-03-14T23:25:20.028Z,6.84
2023-03-14T23:27:47.928Z,6.80
2023-03-14T23:30:17.288Z,6.78
2023-03-14T23:32:45.339Z,6.77
2023-03-14T23:35:14.702Z,6.76
2023-03-14T23:37:42.618Z,6.75
2023-03-14T23:40:11.405Z,6.74
2023-03-14T23:42:39.856Z,6.74
2023-03-14T23:45:08.052Z,6.74
2023-03-14T23:47:35.894Z,6.74
2023-03-14T23:50:04.085Z,6.72
2023-03-14T23:52:32.049Z,6.71
2023-03-14T23:54:59.938Z,6.70
2023-03-14T23:57:27.828Z,6.68
2023-03-14T23:59:55.698Z,6.65
